createdAt,value
2024-01-28T00:00:10.120Z,93.10
2024-01-28T00:02:36.943Z,92.90
2024-01-28T00:05:04.098Z,93.00
2024-01-28T00:07:30.927Z,93.00
2024-01-28T00:09:57.700Z,92.80
2024-01-28T00:12:25.845Z,92.20
2024-01-28T00:14:52.608Z,92.20
2024-01-28T00:17:19.524Z,92.40
2024-01-28T00:19:46.502Z,92.60
2024-01-28T00:22:13.398Z,92.80
2024-01-28T00:24:40.225Z,93.20
2024-01-28T00:27:07.135Z,92.80
2024-01-28T00:29:35.265Z,92.60
2024-01-28T00:32:02.031Z,92.20
2024-01-28T00:34:28.925Z,92.20
2024-01-28T00:36:55.894Z,92.60
2024-01-28T00:39:22.846Z,92.80
2024-01-28T00:41:49.627Z,92.60
2024-01-28T00:44:16.406Z,92.30
2024-01-28T00:46:44.519Z,93.00
2024-01-28T00:49:11.537Z,93.40
2024-01-28T00:51:38.589Z,93.30
2024-01-28T00:54:05.677Z,93.30
2024-01-28T00:56:32.556Z,93.30
2024-01-28T00:58:59.355Z,93.30
2024-01-28T01:01:26.177Z,92.90
2024-01-28T01:03:54.404Z,92.70
2024-01-28T01:06:22.384Z,93.10
2024-01-28T01:08:49.202Z,93.30
2024-01-28T01:11:16.002Z,93.90
2024-01-28T01:13:42.798Z,94.00
2024-01-28T01:16:09.582Z,94.10
2024-01-28T01:18:36.429Z,94.30
2024-01-28T01:21:05.505Z,94.30
2024-01-28T01:23:32.284Z,93.60
2024-01-28T01:25:59.138Z,93.70
2024-01-28T01:28:26.084Z,93.80
2024-01-28T01:30:52.947Z,93.40
2024-01-28T01:33:19.977Z,93.60
2024-01-28T01:35:46.814Z,93.70
2024-01-28T01:38:14.975Z,93.10
2024-01-28T01:40:41.830Z,92.90
2024-01-28T01:43:09.374Z,92.60
2024-01-28T01:45:36.602Z,92.60
2024-01-28T01:48:03.705Z,93.10
2024-01-28T01:50:30.808Z,93.30
2024-01-28T01:52:57.688Z,94.00
2024-01-28T01:55:25.862Z,94.30
2024-01-28T01:57:52.658Z,94.10
2024-01-28T02:00:19.953Z,93.70
2024-01-28T02:02:48.096Z,93.30
2024-01-28T02:05:15.350Z,93.50
2024-01-28T02:07:42.153Z,93.70
2024-01-28T02:10:09.531Z,93.90
2024-01-28T02:12:37.820Z,93.60
2024-01-28T02:15:05.625Z,94.30
2024-01-28T02:17:32.520Z,94.10
2024-01-28T02:19:59.623Z,94.10
2024-01-28T02:22:26.422Z,93.50
2024-01-28T02:24:54.693Z,94.30
2024-01-28T02:27:21.858Z,94.70
2024-01-28T02:29:48.693Z,94.60
2024-01-28T02:32:17.808Z,94.80
2024-01-28T02:34:45.303Z,94.60
2024-01-28T02:37:12.223Z,95.40
2024-01-28T02:39:39.271Z,95.40
2024-01-28T02:42:08.242Z,95.10
2024-01-28T02:44:35.039Z,95.00
2024-01-28T02:47:01.881Z,95.50
2024-01-28T02:49:29.600Z,95.30
2024-01-28T02:51:56.566Z,94.60
2024-01-28T02:54:23.490Z,94.80
2024-01-28T02:56:50.295Z,95.60
2024-01-28T02:59:18.435Z,95.60
2024-01-28T03:01:45.830Z,95.30
2024-01-28T03:04:12.723Z,94.30
2024-01-28T03:06:39.604Z,94.40
2024-01-28T03:09:06.591Z,93.90
2024-01-28T03:11:33.412Z,94.40
2024-01-28T03:14:00.229Z,94.40
2024-01-28T03:16:28.376Z,94.30
2024-01-28T03:18:55.189Z,94.40
2024-01-28T03:21:22.021Z,93.90
2024-01-28T03:23:48.778Z,93.50
2024-01-28T03:26:15.857Z,94.00
2024-01-28T03:28:42.733Z,94.70
2024-01-28T03:31:09.536Z,94.80
2024-01-28T03:33:37.963Z,95.10
2024-01-28T03:36:05.542Z,95.10
2024-01-28T03:38:32.399Z,95.20
2024-01-28T03:40:59.153Z,95.20
2024-01-28T03:43:25.988Z,95.60
2024-01-28T03:45:52.856Z,95.30
2024-01-28T03:48:19.778Z,95.30
2024-01-28T03:50:47.957Z,95.30
2024-01-28T03:53:14.687Z,95.60
2024-01-28T03:55:41.516Z,95.50
2024-01-28T03:58:08.292Z,95.70
2024-01-28T04:00:35.177Z,95.50
2024-01-28T04:03:02.080Z,95.60
2024-01-28T04:05:28.890Z,95.30
2024-01-28T04:07:57.002Z,95.80
2024-01-28T04:10:23.830Z,96.10
2024-01-28T04:12:50.639Z,96.30
2024-01-28T04:15:17.457Z,95.80
2024-01-28T04:17:44.308Z,95.80
2024-01-28T04:20:11.725Z,95.80
2024-01-28T04:22:38.823Z,96.20
2024-01-28T04:25:07.701Z,96.10
2024-01-28T04:27:34.469Z,96.20
2024-01-28T04:30:01.283Z,96.20
2024-01-28T04:32:28.084Z,95.50
2024-01-28T04:34:54.891Z,95.40
2024-01-28T04:37:21.686Z,95.50
2024-01-28T04:39:48.477Z,95.90
2024-01-28T04:42:16.681Z,95.90
2024-01-28T04:44:43.455Z,95.90
2024-01-28T04:47:10.256Z,96.00
2024-01-28T04:49:37.196Z,97.00
2024-01-28T04:52:04.659Z,96.40
2024-01-28T04:54:31.443Z,96.20
2024-01-28T04:56:58.225Z,96.10
2024-01-28T04:59:26.348Z,96.10
2024-01-28T05:01:53.477Z,95.80
2024-01-28T05:04:20.490Z,95.80
2024-01-28T05:06:47.379Z,95.80
2024-01-28T05:09:14.300Z,95.70
2024-01-28T05:11:41.091Z,95.60
2024-01-28T05:14:07.846Z,95.80
2024-01-28T05:16:35.962Z,95.80
2024-01-28T05:19:03.491Z,96.10
2024-01-28T05:21:30.576Z,95.90
2024-01-28T05:23:57.374Z,96.10
2024-01-28T05:26:24.196Z,95.80
2024-01-28T05:28:51.036Z,96.00
2024-01-28T05:31:17.861Z,96.00
2024-01-28T05:33:46.004Z,95.70
2024-01-28T05:36:13.183Z,95.80
2024-01-28T05:38:40.393Z,95.80
2024-01-28T05:41:07.586Z,95.60
2024-01-28T05:43:34.347Z,95.40
2024-01-28T05:46:01.744Z,95.60
2024-01-28T05:48:28.665Z,95.50
2024-01-28T05:50:56.944Z,95.40
2024-01-28T05:53:23.727Z,95.40
2024-01-28T05:55:50.630Z,95.00
2024-01-28T05:58:17.394Z,94.80
2024-01-28T06:00:44.304Z,94.90
2024-01-28T06:03:11.126Z,94.90
2024-01-28T06:05:37.952Z,95.20
2024-01-28T06:08:07.327Z,95.50
2024-01-28T06:10:34.110Z,95.50
2024-01-28T06:13:01.058Z,95.70
2024-01-28T06:15:27.972Z,96.20
2024-01-28T06:17:54.834Z,95.60
2024-01-28T06:20:21.651Z,95.60
2024-01-28T06:22:48.413Z,96.00
2024-01-28T06:25:16.647Z,96.10
2024-01-28T06:27:43.446Z,96.00
2024-01-28T06:30:11.647Z,95.40
2024-01-28T06:32:38.453Z,95.10
2024-01-28T06:35:05.632Z,94.80
2024-01-28T06:37:32.414Z,95.00
2024-01-28T06:39:59.330Z,95.40
2024-01-28T06:42:27.504Z,95.20
2024-01-28T06:44:54.327Z,95.40
2024-01-28T06:47:21.131Z,94.90
2024-01-28T06:49:48.459Z,95.00
2024-01-28T06:52:15.242Z,95.30
2024-01-28T06:54:44.535Z,95.10
2024-01-28T06:57:13.539Z,94.90
2024-01-28T06:59:42.739Z,94.50
2024-01-28T07:02:09.520Z,94.80
2024-01-28T07:04:36.351Z,94.50
2024-01-28T07:07:03.340Z,94.60
2024-01-28T07:09:30.185Z,94.60
2024-01-28T07:11:57.243Z,94.40
2024-01-28T07:14:24.330Z,94.70
2024-01-28T07:16:52.586Z,94.60
2024-01-28T07:19:19.460Z,94.60
2024-01-28T07:21:46.308Z,95.00
2024-01-28T07:24:13.227Z,95.20
2024-01-28T07:26:40.031Z,95.10
2024-01-28T07:29:06.820Z,95.30
2024-01-28T07:31:33.600Z,95.60
2024-01-28T07:34:01.892Z,95.60
2024-01-28T07:36:30.127Z,96.10
2024-01-28T07:38:57.003Z,95.90
2024-01-28T07:41:24.112Z,95.70
2024-01-28T07:43:50.942Z,95.70
2024-01-28T07:46:17.799Z,96.20
2024-01-28T07:48:44.708Z,96.30
2024-01-28T07:51:12.900Z,96.50
2024-01-28T07:53:39.674Z,97.00
2024-01-28T07:56:06.997Z,97.10
2024-01-28T07:58:33.827Z,97.30
2024-01-28T08:01:00.787Z,97.10
2024-01-28T08:03:27.610Z,97.30
2024-01-28T08:05:54.387Z,96.70
2024-01-28T08:08:22.514Z,96.80
2024-01-28T08:10:49.257Z,96.30
2024-01-28T08:13:16.030Z,95.60
2024-01-28T08:15:42.842Z,96.60
2024-01-28T08:18:09.781Z,96.50
2024-01-28T08:20:36.676Z,95.60
2024-01-28T08:23:03.456Z,94.60
2024-01-28T08:25:31.609Z,92.50
2024-01-28T08:27:58.474Z,92.30
2024-01-28T08:30:25.420Z,92.10
2024-01-28T08:32:52.339Z,91.50
2024-01-28T08:35:19.656Z,91.20
2024-01-28T08:37:46.452Z,90.90
2024-01-28T08:40:13.233Z,90.80
2024-01-28T08:42:41.358Z,90.70
2024-01-28T08:45:08.897Z,90.70
2024-01-28T08:47:35.704Z,90.70
2024-01-28T08:50:02.734Z,90.70
2024-01-28T08:52:29.564Z,90.70
2024-01-28T08:54:56.510Z,90.80
2024-01-28T08:57:23.371Z,90.80
2024-01-28T08:59:51.548Z,90.80
2024-01-28T09:02:18.289Z,90.80
2024-01-28T09:04:45.144Z,90.80
2024-01-28T09:07:11.970Z,90.80
2024-01-28T09:09:38.784Z,90.80
2024-01-28T09:12:06.421Z,90.80
2024-01-28T09:14:33.192Z,90.90
2024-01-28T09:17:01.312Z,90.80
2024-01-28T09:19:28.110Z,90.80
2024-01-28T09:21:56.014Z,90.90
2024-01-28T09:24:22.877Z,90.80
2024-01-28T09:26:49.622Z,90.70
2024-01-28T09:29:16.387Z,90.70
2024-01-28T09:31:45.283Z,90.70
2024-01-28T09:34:13.647Z,90.70
2024-01-28T09:36:40.442Z,90.70
2024-01-28T09:39:07.255Z,90.70
2024-01-28T09:41:43.007Z,90.70
2024-01-28T09:44:10.979Z,90.80
2024-01-28T09:46:38.143Z,90.80
2024-01-28T09:49:05.771Z,90.80
2024-01-28T09:51:34.061Z,90.90
2024-01-28T09:54:00.874Z,90.90
2024-01-28T09:56:28.108Z,90.90
2024-01-28T09:58:55.248Z,90.80
2024-01-28T10:01:22.134Z,90.90
2024-01-28T10:03:49.892Z,90.90
2024-01-28T10:06:17.171Z,90.80
2024-01-28T10:08:45.280Z,90.80
2024-01-28T10:11:12.500Z,90.90
2024-01-28T10:13:39.268Z,90.90
2024-01-28T10:16:07.161Z,91.00
2024-01-28T10:18:34.024Z,91.00
2024-01-28T10:21:00.905Z,91.10
2024-01-28T10:23:27.751Z,91.10
2024-01-28T10:25:59.385Z,91.10
2024-01-28T10:28:26.144Z,91.20
2024-01-28T10:30:52.924Z,91.20
2024-01-28T10:33:20.077Z,91.20
2024-01-28T10:35:47.214Z,91.30
2024-01-28T10:38:19.358Z,91.40
2024-01-28T10:40:47.289Z,91.50
2024-01-28T10:43:17.268Z,91.50
2024-01-28T10:45:46.885Z,91.50
2024-01-28T10:48:19.318Z,91.50
2024-01-28T10:50:48.758Z,91.60
2024-01-28T10:53:16.419Z,91.60
2024-01-28T10:55:43.520Z,91.60
2024-01-28T10:58:12.203Z,91.70
2024-01-28T11:00:40.880Z,91.70
2024-01-28T11:03:08.166Z,91.90
2024-01-28T11:05:35.823Z,91.80
2024-01-28T11:08:03.661Z,91.90
2024-01-28T11:10:31.843Z,92.00
2024-01-28T11:12:58.732Z,92.10
2024-01-28T11:15:26.003Z,92.10
2024-01-28T11:17:56.061Z,92.20
2024-01-28T11:20:24.647Z,92.30
2024-01-28T11:22:53.020Z,92.30
2024-01-28T11:25:21.302Z,92.40
2024-01-28T11:27:48.551Z,92.50
2024-01-28T11:30:15.826Z,92.60
2024-01-28T11:32:43.132Z,92.70
2024-01-28T11:35:11.832Z,92.90
2024-01-28T11:37:48.626Z,93.00
2024-01-28T11:40:22.108Z,93.00
2024-01-28T11:42:52.109Z,93.10
2024-01-28T11:45:19.881Z,93.20
2024-01-28T11:47:47.133Z,93.30
2024-01-28T11:50:15.513Z,93.30
2024-01-28T11:52:42.262Z,93.60
2024-01-28T11:55:13.530Z,93.60
2024-01-28T11:57:40.960Z,93.70
2024-01-28T12:00:10.523Z,93.80
2024-01-28T12:02:39.591Z,93.90
2024-01-28T12:05:09.006Z,93.90
2024-01-28T12:07:38.093Z,94.00
2024-01-28T12:10:08.397Z,94.10
2024-01-28T12:12:35.828Z,94.20
2024-01-28T12:15:02.932Z,94.20
2024-01-28T12:17:33.566Z,94.30
2024-01-28T12:20:00.595Z,94.30
2024-01-28T12:22:27.465Z,94.30
2024-01-28T12:24:55.655Z,94.30
2024-01-28T12:27:22.994Z,94.50
2024-01-28T12:29:49.928Z,94.60
2024-01-28T12:32:17.581Z,94.70
2024-01-28T12:34:44.431Z,94.70
2024-01-28T12:37:11.553Z,94.90
2024-01-28T12:39:38.344Z,94.80
2024-01-28T12:42:06.731Z,95.00
2024-01-28T12:44:33.479Z,95.00
2024-01-28T12:47:00.238Z,95.10
2024-01-28T12:49:27.091Z,95.20
2024-01-28T12:51:54.050Z,95.40
2024-01-28T12:54:23.778Z,95.50
2024-01-28T12:56:52.385Z,95.50
2024-01-28T12:59:20.525Z,95.40
2024-01-28T13:01:47.425Z,95.60
2024-01-28T13:04:14.548Z,95.80
2024-01-28T13:06:41.525Z,96.00
2024-01-28T13:09:08.390Z,96.10
2024-01-28T13:11:35.162Z,96.10
2024-01-28T13:14:01.947Z,96.10
2024-01-28T13:16:30.151Z,96.40
2024-01-28T13:18:57.097Z,96.40
2024-01-28T13:21:24.097Z,96.50
2024-01-28T13:23:50.911Z,96.80
2024-01-28T13:26:17.686Z,97.00
2024-01-28T13:28:44.459Z,97.10
2024-01-28T13:31:11.358Z,97.10
2024-01-28T13:33:39.686Z,97.20
2024-01-28T13:36:07.299Z,97.20
2024-01-28T13:38:34.103Z,97.60
2024-01-28T13:41:00.890Z,97.70
2024-01-28T13:43:27.669Z,97.70
2024-01-28T13:45:54.709Z,98.00
2024-01-28T13:48:21.722Z,98.00
2024-01-28T13:50:49.963Z,98.60
2024-01-28T13:53:16.732Z,98.30
2024-01-28T13:55:43.658Z,98.60
2024-01-28T13:58:10.569Z,98.90
2024-01-28T14:00:37.457Z,98.90
2024-01-28T14:03:04.800Z,99.00
2024-01-28T14:05:31.636Z,98.90
2024-01-28T14:07:59.800Z,99.20
2024-01-28T14:10:26.616Z,99.40
2024-01-28T14:12:54.572Z,99.70
2024-01-28T14:15:21.843Z,99.80
2024-01-28T14:17:48.688Z,99.90
2024-01-28T14:20:15.639Z,99.90
2024-01-28T14:22:42.426Z,99.90
2024-01-28T14:25:11.008Z,99.90
2024-01-28T14:27:37.795Z,99.90
2024-01-28T14:30:05.571Z,99.90
2024-01-28T14:32:32.350Z,99.90
2024-01-28T14:34:59.201Z,99.90
2024-01-28T14:37:26.105Z,99.90
2024-01-28T14:39:52.893Z,99.90
2024-01-28T14:42:21.080Z,99.90
2024-01-28T14:44:47.880Z,99.90
2024-01-28T14:47:14.777Z,99.90
2024-01-28T14:49:41.789Z,99.90
2024-01-28T14:52:08.669Z,99.90
2024-01-28T14:54:35.503Z,99.90
2024-01-28T14:57:02.290Z,99.90
2024-01-28T14:59:30.426Z,99.90
2024-01-28T15:01:57.213Z,99.90
2024-01-28T15:04:24.183Z,99.90
2024-01-28T15:06:51.201Z,99.90
2024-01-28T15:09:18.216Z,99.90
2024-01-28T15:11:45.034Z,99.90
2024-01-28T15:14:11.796Z,99.90
2024-01-28T15:16:39.962Z,99.90
2024-01-28T15:19:06.852Z,99.90
2024-01-28T15:21:33.790Z,99.90
2024-01-28T15:24:00.608Z,99.90
2024-01-28T15:26:27.417Z,99.90
2024-01-28T15:28:54.178Z,99.90
2024-01-28T15:31:20.953Z,99.90
2024-01-28T15:33:49.273Z,99.90
2024-01-28T15:36:16.283Z,99.90
2024-01-28T15:38:45.626Z,99.90
2024-01-28T15:41:12.724Z,99.90
2024-01-28T15:43:39.533Z,99.90
2024-01-28T15:46:07.275Z,99.90
2024-01-28T15:48:35.291Z,99.90
2024-01-28T15:51:04.731Z,99.90
2024-01-28T15:53:32.085Z,99.90
2024-01-28T15:55:59.010Z,99.90
2024-01-28T15:58:26.613Z,99.90
2024-01-28T16:00:53.500Z,99.90
2024-01-28T16:03:20.358Z,99.90
2024-01-28T16:05:47.366Z,99.90
2024-01-28T16:08:15.861Z,99.90
2024-01-28T16:10:42.620Z,99.90
2024-01-28T16:13:09.532Z,99.90
2024-01-28T16:15:37.135Z,99.90
2024-01-28T16:18:05.090Z,99.90
2024-01-28T16:20:31.915Z,99.90
2024-01-28T16:22:58.691Z,99.90
2024-01-28T16:25:27.005Z,99.90
2024-01-28T16:27:53.806Z,99.90
2024-01-28T16:30:20.816Z,99.90
2024-01-28T16:32:47.618Z,99.90
2024-01-28T16:35:14.920Z,99.90
2024-01-28T16:37:41.924Z,99.90
2024-01-28T16:40:09.726Z,99.90
2024-01-28T16:42:38.155Z,99.90
2024-01-28T16:45:06.036Z,99.90
2024-01-28T16:47:32.873Z,99.90
2024-01-28T16:49:59.996Z,99.90
2024-01-28T16:52:27.027Z,99.90
2024-01-28T16:54:53.906Z,99.90
2024-01-28T16:57:20.896Z,99.90
2024-01-28T16:59:49.048Z,99.90
2024-01-28T17:02:15.888Z,99.90
2024-01-28T17:04:42.749Z,99.90
2024-01-28T17:07:09.608Z,99.90
2024-01-28T17:09:36.477Z,99.90
2024-01-28T17:12:03.729Z,99.90
2024-01-28T17:14:30.490Z,99.90
2024-01-28T17:16:58.811Z,99.90
2024-01-28T17:19:25.596Z,99.90
2024-01-28T17:21:52.520Z,99.90
2024-01-28T17:24:19.374Z,99.60
2024-01-28T17:26:46.243Z,96.90
2024-01-28T17:29:13.069Z,95.80
2024-01-28T17:31:39.854Z,94.90
2024-01-28T17:34:08.035Z,94.50
2024-01-28T17:36:35.135Z,96.40
2024-01-28T17:39:01.949Z,97.00
2024-01-28T17:41:28.780Z,96.20
2024-01-28T17:43:55.598Z,95.70
2024-01-28T17:46:23.739Z,95.30
2024-01-28T17:48:50.799Z,95.20
2024-01-28T17:51:19.256Z,94.90
2024-01-28T17:53:46.275Z,94.80
2024-01-28T17:56:13.409Z,94.20
2024-01-28T17:58:40.483Z,93.80
2024-01-28T18:01:07.400Z,94.00
2024-01-28T18:03:34.397Z,93.80
2024-01-28T18:06:01.288Z,94.10
2024-01-28T18:08:29.452Z,93.90
2024-01-28T18:10:56.244Z,93.60
2024-01-28T18:13:23.073Z,93.70
2024-01-28T18:15:49.906Z,93.90
2024-01-28T18:18:17.325Z,94.50
2024-01-28T18:20:44.255Z,94.00
2024-01-28T18:23:11.120Z,93.80
2024-01-28T18:25:39.303Z,93.70
2024-01-28T18:28:06.260Z,94.20
2024-01-28T18:30:33.119Z,94.50
2024-01-28T18:33:00.064Z,94.70
2024-01-28T18:35:27.007Z,94.40
2024-01-28T18:37:53.904Z,94.90
2024-01-28T18:40:20.840Z,94.90
2024-01-28T18:42:49.032Z,95.10
2024-01-28T18:45:15.986Z,95.30
2024-01-28T18:47:42.793Z,94.50
2024-01-28T18:50:10.146Z,93.70
2024-01-28T18:52:37.011Z,93.50
2024-01-28T18:55:04.267Z,93.60
2024-01-28T18:57:31.221Z,93.30
2024-01-28T18:59:59.374Z,94.20
2024-01-28T19:02:26.156Z,94.50
2024-01-28T19:04:53.046Z,93.80
2024-01-28T19:07:19.846Z,93.80
2024-01-28T19:09:46.847Z,94.70
2024-01-28T19:12:13.747Z,94.30
2024-01-28T19:14:40.495Z,94.80
2024-01-28T19:17:08.606Z,94.70
2024-01-28T19:19:35.521Z,94.90
2024-01-28T19:22:02.405Z,95.30
2024-01-28T19:24:29.419Z,95.20
2024-01-28T19:26:56.218Z,94.50
2024-01-28T19:29:22.969Z,93.90
2024-01-28T19:31:49.721Z,94.50
2024-01-28T19:34:18.436Z,94.50
2024-01-28T19:36:45.383Z,94.70
2024-01-28T19:39:12.169Z,94.90
2024-01-28T19:41:39.037Z,94.90
2024-01-28T19:44:05.838Z,95.30
2024-01-28T19:46:32.616Z,95.30
2024-01-28T19:48:59.490Z,94.50
2024-01-28T19:51:27.918Z,94.20
2024-01-28T19:53:54.902Z,94.60
2024-01-28T19:56:21.655Z,94.70
2024-01-28T19:58:48.467Z,94.30
2024-01-28T20:01:15.292Z,94.10
2024-01-28T20:03:42.118Z,93.90
2024-01-28T20:06:18.781Z,94.30
2024-01-28T20:08:56.130Z,93.80
2024-01-28T20:11:23.604Z,94.50
2024-01-28T20:13:50.361Z,95.30
2024-01-28T20:16:17.145Z,95.10
2024-01-28T20:18:44.092Z,94.70
2024-01-28T20:21:10.925Z,94.70
2024-01-28T20:23:37.659Z,95.10
2024-01-28T20:26:06.100Z,95.30
2024-01-28T20:28:32.868Z,94.90
2024-01-28T20:30:59.752Z,93.90
2024-01-28T20:33:26.753Z,94.10
2024-01-28T20:35:53.666Z,94.40
2024-01-28T20:38:20.454Z,94.60
2024-01-28T20:40:47.382Z,94.70
2024-01-28T20:43:15.504Z,94.50
2024-01-28T20:45:42.354Z,95.10
2024-01-28T20:48:09.322Z,95.10
2024-01-28T20:50:36.217Z,94.40
2024-01-28T20:53:03.117Z,94.30
2024-01-28T20:55:29.875Z,94.50
2024-01-28T20:57:56.832Z,94.50
2024-01-28T21:00:25.064Z,94.50
2024-01-28T21:02:51.913Z,94.70
2024-01-28T21:05:18.707Z,94.00
2024-01-28T21:07:45.606Z,94.10
2024-01-28T21:10:12.393Z,94.40
2024-01-28T21:12:39.180Z,94.10
2024-01-28T21:15:06.885Z,94.20
2024-01-28T21:17:35.427Z,94.60
2024-01-28T21:20:03.000Z,94.70
2024-01-28T21:22:29.901Z,94.70
2024-01-28T21:24:56.740Z,94.50
2024-01-28T21:27:23.603Z,94.30
2024-01-28T21:29:50.474Z,94.30
2024-01-28T21:32:18.078Z,94.40
2024-01-28T21:34:46.278Z,94.20
2024-01-28T21:37:13.172Z,94.20
2024-01-28T21:39:39.961Z,94.20
2024-01-28T21:42:06.940Z,94.50
2024-01-28T21:44:33.722Z,94.30
2024-01-28T21:47:00.574Z,94.20
2024-01-28T21:49:27.399Z,94.70
2024-01-28T21:51:55.561Z,94.70
2024-01-28T21:54:22.377Z,94.70
2024-01-28T21:56:49.161Z,94.50
2024-01-28T21:59:15.946Z,94.40
2024-01-28T22:01:42.852Z,94.40
2024-01-28T22:04:09.876Z,94.70
2024-01-28T22:06:36.790Z,94.50
2024-01-28T22:09:04.937Z,93.70
2024-01-28T22:11:31.919Z,93.70
2024-01-28T22:13:58.695Z,94.00
2024-01-28T22:16:25.487Z,94.00
2024-01-28T22:18:52.293Z,93.90
2024-01-28T22:21:19.174Z,93.60
2024-01-28T22:23:46.002Z,93.80
2024-01-28T22:26:14.132Z,94.00
2024-01-28T22:28:40.887Z,94.30
2024-01-28T22:31:07.821Z,94.20
2024-01-28T22:33:34.804Z,93.90
2024-01-28T22:36:01.663Z,93.70
2024-01-28T22:38:28.477Z,93.90
2024-01-28T22:40:55.262Z,93.70
2024-01-28T22:43:23.389Z,93.60
2024-01-28T22:45:50.167Z,94.10
2024-01-28T22:48:17.231Z,94.20
2024-01-28T22:50:44.354Z,94.30
2024-01-28T22:53:11.144Z,94.50
2024-01-28T22:55:37.933Z,94.20
2024-01-28T22:58:05.232Z,94.10
2024-01-28T23:00:33.641Z,93.70
2024-01-28T23:03:00.720Z,93.60
2024-01-28T23:05:27.604Z,93.30
2024-01-28T23:07:54.424Z,93.30
2024-01-28T23:10:21.419Z,93.40
2024-01-28T23:12:50.169Z,93.30
2024-01-28T23:15:22.149Z,93.20
2024-01-28T23:17:51.239Z,93.30
2024-01-28T23:20:18.299Z,93.60
2024-01-28T23:22:45.298Z,93.70
2024-01-28T23:25:12.215Z,94.20
2024-01-28T23:27:39.188Z,94.10
2024-01-28T23:30:07.134Z,94.10
2024-01-28T23:32:34.516Z,93.70
2024-01-28T23:35:02.949Z,93.80
2024-01-28T23:37:29.881Z,93.50
2024-01-28T23:39:56.796Z,93.10
2024-01-28T23:42:23.641Z,93.00
2024-01-28T23:44:50.429Z,93.10
2024-01-28T23:47:17.186Z,93.30
2024-01-28T23:49:44.052Z,93.50
2024-01-28T23:52:12.209Z,93.80
2024-01-28T23:54:39.042Z,94.10
2024-01-28T23:57:05.843Z,94.40
2024-01-28T23:59:32.670Z,94.20
